JAL130 RJOO-RJTT
Flight info
| Callsign | JAL130 |
|---|---|
| Flight time | 0h 44m |
| Altitude | 27000 |
| Route | ASUKA SHTLE Y71 XAC |
| Aircraft | A306/H-Q/LB1 |
Departure
| Time | 2026-05-08 09:50 |
|---|---|
| Airport | Osaka Itami International Airport (RJOO) |
Arrival
| Time | 2026-05-08 10:34 |
|---|---|
| Airport | Tokyo Haneda International Airport (RJTT) |
| Time | Latitude | Longitude | Altitude | Speed | Heading |
|---|---|---|---|---|---|
| 2026-05-08 09:21 | 34.79183 | 135.43858 | 48 ft | 0 kts | 31° |
| 2026-05-08 09:35 | 34.79169 | 135.43848 | 48 ft | 4 kts | 31° |
| 2026-05-08 09:36 | 34.79146 | 135.43831 | 54 ft | 4 kts | 31° |
| 2026-05-08 09:36 | 34.79123 | 135.43814 | 51 ft | 4 kts | 31° |
| 2026-05-08 09:36 | 34.79100 | 135.43797 | 48 ft | 4 kts | 31° |
| 2026-05-08 09:36 | 34.79080 | 135.43782 | 48 ft | 4 kts | 38° |
| 2026-05-08 09:37 | 34.79066 | 135.43759 | 48 ft | 4 kts | 87° |
| 2026-05-08 09:37 | 34.79072 | 135.43730 | 48 ft | 4 kts | 127° |
| 2026-05-08 09:37 | 34.79090 | 135.43707 | 48 ft | 4 kts | 135° |
| 2026-05-08 09:37 | 34.79098 | 135.43698 | 48 ft | 0 kts | 135° |
| 2026-05-08 09:42 | 34.79095 | 135.43701 | 56 ft | 4 kts | 135° |
| 2026-05-08 09:42 | 34.79070 | 135.43731 | 50 ft | 5 kts | 135° |
| 2026-05-08 09:42 | 34.79053 | 135.43751 | 54 ft | 5 kts | 135° |
| 2026-05-08 09:43 | 34.79030 | 135.43779 | 48 ft | 5 kts | 135° |
| 2026-05-08 09:43 | 34.79006 | 135.43808 | 50 ft | 5 kts | 135° |
| 2026-05-08 09:43 | 34.78966 | 135.43856 | 48 ft | 11 kts | 135° |
| 2026-05-08 09:43 | 34.78898 | 135.43939 | 50 ft | 17 kts | 135° |
| 2026-05-08 09:44 | 34.78803 | 135.44054 | 50 ft | 21 kts | 135° |
| 2026-05-08 09:44 | 34.78699 | 135.44178 | 56 ft | 20 kts | 134° |
| 2026-05-08 09:44 | 34.78601 | 135.44298 | 50 ft | 19 kts | 138° |
| 2026-05-08 09:44 | 34.78497 | 135.44334 | 51 ft | 14 kts | 180° |
| 2026-05-08 09:45 | 34.78400 | 135.44334 | 52 ft | 13 kts | 180° |
| 2026-05-08 09:45 | 34.78307 | 135.44333 | 53 ft | 16 kts | 180° |
| 2026-05-08 09:45 | 34.78171 | 135.44353 | 52 ft | 19 kts | 152° |
| 2026-05-08 09:45 | 34.78074 | 135.44460 | 53 ft | 18 kts | 135° |
| 2026-05-08 09:46 | 34.77986 | 135.44566 | 50 ft | 18 kts | 135° |
| 2026-05-08 09:46 | 34.77900 | 135.44670 | 54 ft | 17 kts | 135° |
| 2026-05-08 09:46 | 34.77817 | 135.44770 | 48 ft | 16 kts | 136° |
| 2026-05-08 09:46 | 34.77738 | 135.44865 | 48 ft | 15 kts | 136° |
| 2026-05-08 09:47 | 34.77656 | 135.44932 | 50 ft | 14 kts | 155° |
| 2026-05-08 09:47 | 34.77573 | 135.44979 | 49 ft | 13 kts | 155° |
| 2026-05-08 09:47 | 34.77495 | 135.45015 | 50 ft | 10 kts | 177° |
| 2026-05-08 09:47 | 34.77489 | 135.45015 | 52 ft | 0 kts | 178° |
| 2026-05-08 09:48 | 34.77484 | 135.45015 | 53 ft | 1 kts | 178° |
| 2026-05-08 09:48 | 34.77478 | 135.45015 | 53 ft | 1 kts | 181° |
| 2026-05-08 09:49 | 34.77439 | 135.44956 | 51 ft | 17 kts | 266° |
| 2026-05-08 09:49 | 34.77542 | 135.44798 | 53 ft | 35 kts | 316° |
| 2026-05-08 09:49 | 34.77869 | 135.44402 | 54 ft | 101 kts | 314° |
| 2026-05-08 09:49 | 34.78507 | 135.43625 | 105 ft | 153 kts | 315° |
| 2026-05-08 09:50 | 34.79205 | 135.42627 | 775 ft | 161 kts | 308° |
| 2026-05-08 09:50 | 34.79534 | 135.41316 | 1502 ft | 182 kts | 271° |
| 2026-05-08 09:50 | 34.78878 | 135.39854 | 2136 ft | 221 kts | 223° |
| 2026-05-08 09:50 | 34.77403 | 135.39285 | 3300 ft | 229 kts | 178° |
| 2026-05-08 09:51 | 34.75962 | 135.40043 | 4633 ft | 230 kts | 137° |
| 2026-05-08 09:51 | 34.75248 | 135.41747 | 5943 ft | 232 kts | 97° |
| 2026-05-08 09:51 | 34.75550 | 135.43669 | 7008 ft | 239 kts | 57° |
| 2026-05-08 09:51 | 34.76622 | 135.45237 | 8040 ft | 245 kts | 42° |
| 2026-05-08 09:52 | 34.77780 | 135.46818 | 9100 ft | 256 kts | 46° |
| 2026-05-08 09:52 | 34.78787 | 135.48662 | 10065 ft | 271 kts | 66° |
| 2026-05-08 09:52 | 34.79113 | 135.51029 | 10600 ft | 299 kts | 91° |
| 2026-05-08 09:52 | 34.79023 | 135.53668 | 10946 ft | 327 kts | 96° |
| 2026-05-08 09:53 | 34.78853 | 135.56532 | 11275 ft | 352 kts | 96° |
| 2026-05-08 09:53 | 34.78686 | 135.59600 | 11593 ft | 375 kts | 96° |
| 2026-05-08 09:53 | 34.78527 | 135.62859 | 11886 ft | 396 kts | 95° |
| 2026-05-08 09:53 | 34.78372 | 135.66279 | 12172 ft | 415 kts | 95° |
| 2026-05-08 09:54 | 34.78214 | 135.69857 | 12487 ft | 431 kts | 95° |
| 2026-05-08 09:54 | 34.78054 | 135.73538 | 12993 ft | 440 kts | 95° |
| 2026-05-08 09:54 | 34.77891 | 135.77297 | 13538 ft | 448 kts | 95° |
| 2026-05-08 09:54 | 34.77728 | 135.81095 | 14115 ft | 453 kts | 95° |
| 2026-05-08 09:55 | 34.77561 | 135.84901 | 14634 ft | 459 kts | 95° |
| 2026-05-08 09:55 | 34.77390 | 135.88802 | 15157 ft | 465 kts | 95° |
| 2026-05-08 09:55 | 34.77215 | 135.92750 | 15674 ft | 470 kts | 95° |
| 2026-05-08 09:55 | 34.77037 | 135.96737 | 16300 ft | 474 kts | 95° |
| 2026-05-08 09:56 | 34.76857 | 136.00777 | 16800 ft | 481 kts | 95° |
| 2026-05-08 09:56 | 34.76878 | 136.04877 | 17270 ft | 488 kts | 88° |
| 2026-05-08 09:56 | 34.77142 | 136.09014 | 17720 ft | 494 kts | 86° |
| 2026-05-08 09:56 | 34.77452 | 136.13191 | 18177 ft | 498 kts | 86° |
| 2026-05-08 09:57 | 34.78075 | 136.21670 | 18937 ft | 507 kts | 86° |
| 2026-05-08 09:57 | 34.78384 | 136.25965 | 19316 ft | 511 kts | 86° |
| 2026-05-08 09:57 | 34.78690 | 136.30286 | 19679 ft | 515 kts | 86° |
| 2026-05-08 09:58 | 34.79000 | 136.34648 | 20001 ft | 519 kts | 86° |
| 2026-05-08 09:58 | 34.79306 | 136.38986 | 20390 ft | 520 kts | 87° |
| 2026-05-08 09:58 | 34.79607 | 136.43371 | 20823 ft | 522 kts | 87° |
| 2026-05-08 09:58 | 34.79914 | 136.47783 | 21136 ft | 526 kts | 87° |
| 2026-05-08 09:59 | 34.80223 | 136.52237 | 21468 ft | 530 kts | 87° |
| 2026-05-08 09:59 | 34.80532 | 136.56735 | 21802 ft | 534 kts | 87° |
| 2026-05-08 09:59 | 34.80842 | 136.61259 | 22101 ft | 539 kts | 87° |
| 2026-05-08 09:59 | 34.81154 | 136.65838 | 22426 ft | 543 kts | 87° |
| 2026-05-08 10:00 | 34.81464 | 136.70431 | 22738 ft | 546 kts | 87° |
| 2026-05-08 10:00 | 34.81775 | 136.75053 | 23040 ft | 550 kts | 87° |
| 2026-05-08 10:00 | 34.82082 | 136.79642 | 23310 ft | 554 kts | 88° |
| 2026-05-08 10:00 | 34.82394 | 136.84338 | 23539 ft | 558 kts | 88° |
| 2026-05-08 10:01 | 34.82705 | 136.89054 | 23775 ft | 559 kts | 88° |
| 2026-05-08 10:01 | 34.82956 | 136.93779 | 24057 ft | 559 kts | 92° |
| 2026-05-08 10:01 | 34.82775 | 136.98487 | 24328 ft | 558 kts | 99° |
| 2026-05-08 10:01 | 34.82361 | 137.03194 | 24578 ft | 558 kts | 102° |
| 2026-05-08 10:02 | 34.81827 | 137.07881 | 24826 ft | 559 kts | 103° |
| 2026-05-08 10:02 | 34.81248 | 137.12570 | 25085 ft | 561 kts | 104° |
| 2026-05-08 10:02 | 34.80666 | 137.17273 | 25335 ft | 563 kts | 104° |
| 2026-05-08 10:02 | 34.80092 | 137.22013 | 25558 ft | 565 kts | 103° |
| 2026-05-08 10:03 | 34.79531 | 137.26751 | 25820 ft | 565 kts | 103° |
| 2026-05-08 10:03 | 34.78990 | 137.31428 | 26109 ft | 565 kts | 103° |
| 2026-05-08 10:03 | 34.78447 | 137.36171 | 26299 ft | 568 kts | 103° |
| 2026-05-08 10:03 | 34.77904 | 137.40944 | 26485 ft | 570 kts | 103° |
| 2026-05-08 10:04 | 34.77359 | 137.45729 | 26693 ft | 572 kts | 103° |
| 2026-05-08 10:04 | 34.76812 | 137.50521 | 26775 ft | 569 kts | 103° |
| 2026-05-08 10:04 | 34.76280 | 137.55220 | 26788 ft | 554 kts | 103° |
| 2026-05-08 10:04 | 34.75754 | 137.59838 | 26788 ft | 548 kts | 103° |
| 2026-05-08 10:05 | 34.75224 | 137.64423 | 26786 ft | 546 kts | 103° |
| 2026-05-08 10:05 | 34.74698 | 137.69001 | 26788 ft | 546 kts | 103° |
| 2026-05-08 10:05 | 34.74222 | 137.73585 | 26784 ft | 547 kts | 102° |
| 2026-05-08 10:05 | 34.73781 | 137.78183 | 26785 ft | 548 kts | 102° |
| 2026-05-08 10:06 | 34.73354 | 137.82784 | 26767 ft | 547 kts | 101° |
| 2026-05-08 10:06 | 34.72931 | 137.87372 | 26768 ft | 547 kts | 101° |
| 2026-05-08 10:06 | 34.72503 | 137.91959 | 26763 ft | 546 kts | 102° |
| 2026-05-08 10:06 | 34.72069 | 137.96540 | 26748 ft | 545 kts | 102° |
| 2026-05-08 10:07 | 34.71637 | 138.01113 | 26751 ft | 545 kts | 100° |
| 2026-05-08 10:07 | 34.71517 | 138.05747 | 26749 ft | 548 kts | 95° |
| 2026-05-08 10:07 | 34.71467 | 138.10392 | 26750 ft | 548 kts | 94° |
| 2026-05-08 10:07 | 34.71459 | 138.15010 | 26748 ft | 547 kts | 94° |
| 2026-05-08 10:08 | 34.71474 | 138.19640 | 26751 ft | 547 kts | 94° |
| 2026-05-08 10:08 | 34.71496 | 138.24271 | 26741 ft | 547 kts | 93° |
| 2026-05-08 10:08 | 34.71519 | 138.28888 | 26770 ft | 546 kts | 93° |
| 2026-05-08 10:08 | 34.71539 | 138.33498 | 26778 ft | 545 kts | 93° |
| 2026-05-08 10:09 | 34.71554 | 138.38082 | 26775 ft | 540 kts | 94° |
| 2026-05-08 10:09 | 34.71566 | 138.42636 | 26769 ft | 537 kts | 93° |
| 2026-05-08 10:09 | 34.71573 | 138.47105 | 26779 ft | 536 kts | 93° |
| 2026-05-08 10:09 | 34.71577 | 138.51642 | 26783 ft | 535 kts | 94° |
| 2026-05-08 10:10 | 34.71578 | 138.56162 | 26785 ft | 535 kts | 94° |
| 2026-05-08 10:10 | 34.71578 | 138.60679 | 26785 ft | 535 kts | 94° |
| 2026-05-08 10:10 | 34.71576 | 138.65211 | 26784 ft | 535 kts | 94° |
| 2026-05-08 10:10 | 34.71572 | 138.69727 | 26782 ft | 535 kts | 94° |
| 2026-05-08 10:11 | 34.71566 | 138.74270 | 26783 ft | 539 kts | 94° |
| 2026-05-08 10:11 | 34.71558 | 138.78845 | 26779 ft | 541 kts | 94° |
| 2026-05-08 10:11 | 34.71538 | 138.83414 | 26769 ft | 541 kts | 94° |
| 2026-05-08 10:11 | 34.71517 | 138.87987 | 26752 ft | 541 kts | 93° |
| 2026-05-08 10:12 | 34.71517 | 138.92550 | 26779 ft | 539 kts | 93° |
| 2026-05-08 10:12 | 34.71513 | 138.97038 | 26780 ft | 537 kts | 93° |
| 2026-05-08 10:12 | 34.71501 | 139.01575 | 26770 ft | 537 kts | 94° |
| 2026-05-08 10:12 | 34.71474 | 139.06112 | 26779 ft | 537 kts | 94° |
| 2026-05-08 10:13 | 34.71443 | 139.10656 | 26778 ft | 537 kts | 95° |
| 2026-05-08 10:13 | 34.71413 | 139.15185 | 26772 ft | 534 kts | 95° |
| 2026-05-08 10:13 | 34.71384 | 139.19696 | 26773 ft | 533 kts | 95° |
| 2026-05-08 10:13 | 34.71354 | 139.24199 | 26782 ft | 533 kts | 95° |
| 2026-05-08 10:14 | 34.71323 | 139.28702 | 26775 ft | 532 kts | 95° |
| 2026-05-08 10:14 | 34.71290 | 139.33205 | 26775 ft | 533 kts | 95° |
| 2026-05-08 10:14 | 34.71255 | 139.37704 | 26772 ft | 532 kts | 94° |
| 2026-05-08 10:14 | 34.71563 | 139.42193 | 26770 ft | 537 kts | 80° |
| 2026-05-08 10:15 | 34.72776 | 139.46494 | 26771 ft | 540 kts | 64° |
| 2026-05-08 10:15 | 34.74658 | 139.50369 | 26773 ft | 520 kts | 56° |
| 2026-05-08 10:15 | 34.76575 | 139.53993 | 26775 ft | 500 kts | 57° |
| 2026-05-08 10:15 | 34.78367 | 139.57520 | 26771 ft | 481 kts | 58° |
| 2026-05-08 10:16 | 34.80048 | 139.60964 | 26770 ft | 465 kts | 59° |
| 2026-05-08 10:16 | 34.81643 | 139.64324 | 26769 ft | 451 kts | 59° |
| 2026-05-08 10:16 | 34.83159 | 139.67543 | 26765 ft | 437 kts | 56° |
| 2026-05-08 10:16 | 34.85113 | 139.70264 | 26759 ft | 419 kts | 32° |
| 2026-05-08 10:17 | 34.87612 | 139.71900 | 26786 ft | 398 kts | 8° |
| 2026-05-08 10:17 | 34.90240 | 139.72772 | 26494 ft | 389 kts | 4° |
| 2026-05-08 10:17 | 34.92883 | 139.73585 | 25796 ft | 395 kts | 5° |
| 2026-05-08 10:17 | 34.95551 | 139.74491 | 25199 ft | 399 kts | 7° |
| 2026-05-08 10:18 | 34.98192 | 139.75583 | 24699 ft | 406 kts | 19° |
| 2026-05-08 10:18 | 35.00618 | 139.77434 | 24108 ft | 416 kts | 30° |
| 2026-05-08 10:18 | 35.02871 | 139.79685 | 23616 ft | 418 kts | 37° |
| 2026-05-08 10:18 | 35.04984 | 139.82063 | 23348 ft | 409 kts | 39° |
| 2026-05-08 10:19 | 35.07001 | 139.84430 | 22936 ft | 404 kts | 40° |
| 2026-05-08 10:19 | 35.08993 | 139.86823 | 22468 ft | 400 kts | 40° |
| 2026-05-08 10:19 | 35.10962 | 139.89219 | 21984 ft | 398 kts | 41° |
| 2026-05-08 10:20 | 35.14838 | 139.93976 | 21065 ft | 392 kts | 42° |
| 2026-05-08 10:20 | 35.16748 | 139.96334 | 20541 ft | 388 kts | 42° |
| 2026-05-08 10:20 | 35.18644 | 139.98681 | 19987 ft | 387 kts | 42° |
| 2026-05-08 10:20 | 35.20529 | 140.01023 | 19483 ft | 384 kts | 42° |
| 2026-05-08 10:21 | 35.22392 | 140.03332 | 18981 ft | 380 kts | 42° |
| 2026-05-08 10:21 | 35.24245 | 140.05611 | 18472 ft | 376 kts | 42° |
| 2026-05-08 10:21 | 35.26080 | 140.07875 | 17934 ft | 373 kts | 43° |
| 2026-05-08 10:21 | 35.27892 | 140.10135 | 17359 ft | 370 kts | 43° |
| 2026-05-08 10:22 | 35.29680 | 140.12378 | 16793 ft | 366 kts | 43° |
| 2026-05-08 10:22 | 35.31447 | 140.14592 | 16252 ft | 361 kts | 43° |
| 2026-05-08 10:22 | 35.33194 | 140.16765 | 15768 ft | 355 kts | 42° |
| 2026-05-08 10:22 | 35.34919 | 140.18908 | 15279 ft | 351 kts | 42° |
| 2026-05-08 10:23 | 35.36709 | 140.20902 | 14742 ft | 344 kts | 27° |
| 2026-05-08 10:23 | 35.38859 | 140.21888 | 14192 ft | 321 kts | 356° |
| 2026-05-08 10:23 | 35.41028 | 140.21841 | 13720 ft | 306 kts | 345° |
| 2026-05-08 10:23 | 35.43129 | 140.21585 | 13168 ft | 302 kts | 344° |
| 2026-05-08 10:24 | 35.45177 | 140.21325 | 12623 ft | 299 kts | 344° |
| 2026-05-08 10:24 | 35.47238 | 140.21080 | 12097 ft | 296 kts | 345° |
| 2026-05-08 10:24 | 35.49273 | 140.20853 | 11580 ft | 292 kts | 345° |
| 2026-05-08 10:24 | 35.51286 | 140.20637 | 11055 ft | 288 kts | 346° |
| 2026-05-08 10:25 | 35.53258 | 140.20348 | 10525 ft | 281 kts | 339° |
| 2026-05-08 10:25 | 35.55130 | 140.19785 | 10013 ft | 275 kts | 335° |
| 2026-05-08 10:25 | 35.56951 | 140.19131 | 9548 ft | 267 kts | 330° |
| 2026-05-08 10:25 | 35.58484 | 140.18109 | 9210 ft | 237 kts | 310° |
| 2026-05-08 10:26 | 35.59507 | 140.16659 | 8526 ft | 218 kts | 295° |
| 2026-05-08 10:26 | 35.60248 | 140.15051 | 7770 ft | 212 kts | 286° |
| 2026-05-08 10:26 | 35.60579 | 140.13329 | 7001 ft | 205 kts | 270° |
| 2026-05-08 10:26 | 35.60604 | 140.11613 | 6393 ft | 200 kts | 266° |
| 2026-05-08 10:27 | 35.60582 | 140.09934 | 5808 ft | 195 kts | 266° |
| 2026-05-08 10:27 | 35.60559 | 140.08258 | 5125 ft | 197 kts | 266° |
| 2026-05-08 10:27 | 35.60542 | 140.06576 | 4500 ft | 195 kts | 266° |
| 2026-05-08 10:27 | 35.60530 | 140.04918 | 3939 ft | 192 kts | 265° |
| 2026-05-08 10:28 | 35.60522 | 140.03306 | 3548 ft | 185 kts | 264° |
| 2026-05-08 10:28 | 35.60516 | 140.01787 | 3359 ft | 168 kts | 264° |
| 2026-05-08 10:28 | 35.60488 | 140.00867 | 3134 ft | 159 kts | 258° |
| 2026-05-08 10:28 | 35.60390 | 139.99519 | 2692 ft | 160 kts | 263° |
| 2026-05-08 10:29 | 35.60403 | 139.98156 | 2183 ft | 158 kts | 261° |
| 2026-05-08 10:29 | 35.60415 | 139.96859 | 1865 ft | 146 kts | 262° |
| 2026-05-08 10:29 | 35.60410 | 139.95617 | 1511 ft | 146 kts | 260° |
| 2026-05-08 10:29 | 35.60392 | 139.93973 | 1056 ft | 145 kts | 261° |
| 2026-05-08 10:30 | 35.60383 | 139.92711 | 992 ft | 149 kts | 261° |
| 2026-05-08 10:30 | 35.60381 | 139.91847 | 982 ft | 150 kts | 259° |
| 2026-05-08 10:30 | 35.60381 | 139.90563 | 975 ft | 150 kts | 259° |
| 2026-05-08 10:30 | 35.60382 | 139.89281 | 972 ft | 150 kts | 259° |
| 2026-05-08 10:31 | 35.60382 | 139.87997 | 978 ft | 150 kts | 259° |
| 2026-05-08 10:31 | 35.60380 | 139.86724 | 976 ft | 152 kts | 261° |
| 2026-05-08 10:31 | 35.60382 | 139.85440 | 973 ft | 148 kts | 262° |
| 2026-05-08 10:31 | 35.60382 | 139.84177 | 973 ft | 146 kts | 261° |
| 2026-05-08 10:32 | 35.60390 | 139.83025 | 1158 ft | 127 kts | 259° |
| 2026-05-08 10:32 | 35.60183 | 139.81997 | 1124 ft | 123 kts | 242° |
| 2026-05-08 10:32 | 35.59779 | 139.81075 | 784 ft | 121 kts | 228° |
| 2026-05-08 10:32 | 35.59220 | 139.80292 | 557 ft | 121 kts | 221° |
| 2026-05-08 10:33 | 35.58637 | 139.79525 | 450 ft | 123 kts | 225° |
| 2026-05-08 10:33 | 35.58011 | 139.78830 | 330 ft | 117 kts | 215° |
| 2026-05-08 10:33 | 35.57363 | 139.78247 | 222 ft | 117 kts | 215° |
| 2026-05-08 10:33 | 35.56694 | 139.77700 | 113 ft | 111 kts | 218° |
| 2026-05-08 10:34 | 35.56078 | 139.77133 | 38 ft | 106 kts | 213° |
| 2026-05-08 10:34 | 35.55641 | 139.76910 | 31 ft | 23 kts | 162° |
| 2026-05-08 10:34 | 35.55614 | 139.77001 | 29 ft | 11 kts | 57° |
| 2026-05-08 10:34 | 35.55629 | 139.77020 | 29 ft | 1 kts | 41° |
| 2026-05-08 10:35 | 35.55637 | 139.77029 | 29 ft | 2 kts | 41° |
| 2026-05-08 10:35 | 35.55662 | 139.77052 | 29 ft | 9 kts | 37° |
| 2026-05-08 10:35 | 35.55733 | 139.77117 | 31 ft | 17 kts | 36° |
| 2026-05-08 10:35 | 35.55834 | 139.77230 | 29 ft | 17 kts | 69° |
| 2026-05-08 10:36 | 35.55844 | 139.77362 | 28 ft | 15 kts | 95° |
| 2026-05-08 10:36 | 35.55819 | 139.77416 | 28 ft | 5 kts | 149° |
| 2026-05-08 10:36 | 35.55787 | 139.77439 | 28 ft | 5 kts | 148° |
| 2026-05-08 10:36 | 35.55719 | 139.77490 | 28 ft | 18 kts | 148° |
| 2026-05-08 10:37 | 35.55588 | 139.77583 | 28 ft | 19 kts | 152° |
| 2026-05-08 10:37 | 35.55475 | 139.77657 | 28 ft | 18 kts | 147° |
| 2026-05-08 10:37 | 35.55372 | 139.77736 | 28 ft | 17 kts | 149° |
| 2026-05-08 10:37 | 35.55270 | 139.77806 | 28 ft | 16 kts | 154° |
| 2026-05-08 10:38 | 35.55177 | 139.77864 | 29 ft | 13 kts | 141° |
| 2026-05-08 10:38 | 35.55104 | 139.77930 | 29 ft | 11 kts | 152° |
| 2026-05-08 10:38 | 35.55034 | 139.77975 | 29 ft | 11 kts | 153° |
| 2026-05-08 10:38 | 35.54974 | 139.78027 | 28 ft | 10 kts | 116° |
| 2026-05-08 10:39 | 35.54985 | 139.78104 | 28 ft | 8 kts | 64° |
| 2026-05-08 10:39 | 35.55005 | 139.78148 | 29 ft | 5 kts | 62° |
| 2026-05-08 10:39 | 35.55019 | 139.78179 | 29 ft | 4 kts | 59° |
| 2026-05-08 10:39 | 35.55027 | 139.78196 | 29 ft | 0 kts | 60° |